ALXO2: Washita River, Alex, OK

Data processed at Thu May 23 2019 23:50


All information presented herein is the property of the government of the United States of America and may be revised or deleted at any time without prior notice.
Dissemination of this information without the expressed written consent of the Public Affairs Office, Tulsa District U.S. Army Corps of Engineers is strictly prohibited.
These data are gathered electronically and, as presented, have not undergone any form of quality control. These data are not guaranteed to be valid or correct.
Go to home page.
Go to station list.
Go to home page.

Upstream stations:

Downstream station:
Previous Day
Next Day
Current Day
    
SHEF ID:       ALXO2     Washita River at Alex, OK
STATION TYPE:  
Regulating: Stage =    19.00, Flow =    19987

               PRECIP     STAGE  RIV-FLOW  BAT-LOAD
                   in        ft       cfs      volt
              Ccp-Rev   Ccp-Rev   Ccp-Rev   Ccp-Rev
(US/Central)
05/23 00:00      0.00     13.66     10403     12.49
05/23 01:00      0.00     13.59     10295     12.49
05/23 02:00      0.00     13.44     10066     12.49
05/23 03:00      0.00     13.40     10005     12.49
05/23 04:00      0.00     13.33      9900     12.49
05/23 05:00      0.00     13.24      9764     12.49
05/23 06:00      0.00     13.16      9644     12.41
05/23 07:00      0.00     13.12      9585     12.41
05/23 08:00      0.00     13.01      9422     12.49
05/23 09:00      0.00     12.95      9333     12.57
05/23 10:00      0.00     12.91      9274     12.65
05/23 11:00      0.00     12.80      9113     12.65
05/23 12:00      0.00     12.83      9157     12.73
05/23 13:00      0.00     12.78      9084     12.81
05/23 14:00      0.00     12.74      9026     12.81
05/23 15:00      0.00     12.66      8911     12.81
05/23 16:00      0.00     12.65      8896     12.81
05/23 17:00      0.00     12.57      8781     12.81
05/23 18:00      0.00     12.47      8638     12.81
05/23 19:00      0.00     12.51      8695     12.73
05/23 20:00      0.00     12.51      8695     12.73
05/23 21:00      0.00     12.49      8667     12.57
05/23 22:00      0.00     12.44      8596     12.57
05/23 23:00      0.00     12.40      8539     12.57